Springfield, Virginia
Current Conditions -  °F | °C
As of 4:58 PM on Friday 24 Oct 2014 (Local Time) from KDAA Reporting Station
Few Clouds Few Clouds  
Wind Chill: 67°   Ceiling: Unl
Heat Index: 67°   Visibility: 10mi
Dew Point: 40°   Wind: 7mph
Humidity: 38%   Direction: 290°WNW
Pressure: 29.91"   Gusts: NA
Location:  38.78°N, 77.19°W
Report Text: KDAA 242058Z AUTO 29006KT 10SM FEW230 20/05 A2991 RMK AO2 SLP132 T01960047 56006
Loading
Personal Weather Stations






























Interactive Weather Map
Tropical Storm Tracking
New forecast layout! Learn more

10-Day Weather Forecast

Advertisements
Track Severe Weather on mobile